sensor_id;sensor_type;location;lat;lon;timestamp;temperature;humidity
65559;DHT22;52203;51.998;5.140;2024-03-08T00:01:55;14.11;118.99
65559;DHT22;52203;51.998;5.140;2024-03-08T00:04:20;14.10;118.99
65559;DHT22;52203;51.998;5.140;2024-03-08T00:06:46;14.09;118.99
65559;DHT22;52203;51.998;5.140;2024-03-08T00:09:13;14.08;118.99
65559;DHT22;52203;51.998;5.140;2024-03-08T00:11:39;14.09;118.99
65559;DHT22;52203;51.998;5.140;2024-03-08T00:14:05;14.06;118.99
65559;DHT22;52203;51.998;5.140;2024-03-08T00:16:32;14.07;118.99
65559;DHT22;52203;51.998;5.140;2024-03-08T00:18:58;14.08;118.99
65559;DHT22;52203;51.998;5.140;2024-03-08T00:21:23;14.05;118.99
65559;DHT22;52203;51.998;5.140;2024-03-08T00:23:49;14.05;118.99
65559;DHT22;52203;51.998;5.140;2024-03-08T00:26:14;14.03;118.99
65559;DHT22;52203;51.998;5.140;2024-03-08T00:28:40;14.04;118.99
65559;DHT22;52203;51.998;5.140;2024-03-08T00:31:06;14.04;118.99
65559;DHT22;52203;51.998;5.140;2024-03-08T00:33:32;14.00;118.99
65559;DHT22;52203;51.998;5.140;2024-03-08T00:35:57;14.00;118.99
65559;DHT22;52203;51.998;5.140;2024-03-08T00:38:23;14.00;118.99
65559;DHT22;52203;51.998;5.140;2024-03-08T00:40:49;13.97;118.99
65559;DHT22;52203;51.998;5.140;2024-03-08T00:43:16;13.97;118.99
65559;DHT22;52203;51.998;5.140;2024-03-08T00:45:42;13.97;118.99
65559;DHT22;52203;51.998;5.140;2024-03-08T00:48:08;13.98;118.99
65559;DHT22;52203;51.998;5.140;2024-03-08T00:50:34;13.98;118.99
65559;DHT22;52203;51.998;5.140;2024-03-08T00:53:03;13.95;118.99
65559;DHT22;52203;51.998;5.140;2024-03-08T00:55:30;13.95;118.99
65559;DHT22;52203;51.998;5.140;2024-03-08T00:57:55;13.95;118.99
65559;DHT22;52203;51.998;5.140;2024-03-08T01:00:21;13.93;118.99
65559;DHT22;52203;51.998;5.140;2024-03-08T01:02:46;13.91;118.99
65559;DHT22;52203;51.998;5.140;2024-03-08T01:05:13;13.93;118.99
65559;DHT22;52203;51.998;5.140;2024-03-08T01:07:38;13.92;118.99
65559;DHT22;52203;51.998;5.140;2024-03-08T01:10:05;13.92;118.99
65559;DHT22;52203;51.998;5.140;2024-03-08T01:12:34;13.93;118.99
65559;DHT22;52203;51.998;5.140;2024-03-08T01:15:00;13.93;118.99
65559;DHT22;52203;51.998;5.140;2024-03-08T01:17:26;13.92;118.99
65559;DHT22;52203;51.998;5.140;2024-03-08T01:19:52;13.89;118.99
65559;DHT22;52203;51.998;5.140;2024-03-08T01:22:18;13.88;118.99
65559;DHT22;52203;51.998;5.140;2024-03-08T01:24:44;13.89;118.99
65559;DHT22;52203;51.998;5.140;2024-03-08T01:27:12;13.89;118.99
65559;DHT22;52203;51.998;5.140;2024-03-08T01:29:38;13.89;118.99
65559;DHT22;52203;51.998;5.140;2024-03-08T01:32:04;13.86;118.99
65559;DHT22;52203;51.998;5.140;2024-03-08T01:34:29;13.89;118.99
65559;DHT22;52203;51.998;5.140;2024-03-08T01:36:55;13.85;118.99
65559;DHT22;52203;51.998;5.140;2024-03-08T01:39:23;13.83;118.99
65559;DHT22;52203;51.998;5.140;2024-03-08T01:41:49;13.83;118.99
65559;DHT22;52203;51.998;5.140;2024-03-08T01:44:15;13.84;118.99
65559;DHT22;52203;51.998;5.140;2024-03-08T01:46:44;13.83;118.99
65559;DHT22;52203;51.998;5.140;2024-03-08T01:49:11;13.82;118.99
65559;DHT22;52203;51.998;5.140;2024-03-08T01:51:39;13.88;118.99
65559;DHT22;52203;51.998;5.140;2024-03-08T01:54:06;13.86;118.99
65559;DHT22;52203;51.998;5.140;2024-03-08T01:56:32;13.86;118.99
65559;DHT22;52203;51.998;5.140;2024-03-08T01:58:59;13.85;118.99
65559;DHT22;52203;51.998;5.140;2024-03-08T02:01:25;13.84;118.99
65559;DHT22;52203;51.998;5.140;2024-03-08T02:03:51;13.84;118.99
65559;DHT22;52203;51.998;5.140;2024-03-08T02:06:16;13.84;118.99
65559;DHT22;52203;51.998;5.140;2024-03-08T02:08:45;13.82;118.99
65559;DHT22;52203;51.998;5.140;2024-03-08T02:11:12;13.82;118.99
65559;DHT22;52203;51.998;5.140;2024-03-08T02:13:38;13.80;118.99
65559;DHT22;52203;51.998;5.140;2024-03-08T02:16:04;13.80;118.99
65559;DHT22;52203;51.998;5.140;2024-03-08T02:18:35;13.79;118.99
65559;DHT22;52203;51.998;5.140;2024-03-08T02:21:03;13.79;118.99
65559;DHT22;52203;51.998;5.140;2024-03-08T02:23:29;13.78;118.99
65559;DHT22;52203;51.998;5.140;2024-03-08T02:25:56;13.78;118.99
65559;DHT22;52203;51.998;5.140;2024-03-08T02:28:22;13.78;118.99
65559;DHT22;52203;51.998;5.140;2024-03-08T02:30:51;13.76;118.99
65559;DHT22;52203;51.998;5.140;2024-03-08T02:33:23;13.78;118.99
65559;DHT22;52203;51.998;5.140;2024-03-08T02:35:49;13.77;118.99
65559;DHT22;52203;51.998;5.140;2024-03-08T02:38:18;13.76;118.99
65559;DHT22;52203;51.998;5.140;2024-03-08T02:40:48;13.76;118.99
65559;DHT22;52203;51.998;5.140;2024-03-08T02:43:15;13.73;118.99
65559;DHT22;52203;51.998;5.140;2024-03-08T02:45:41;13.74;118.99
65559;DHT22;52203;51.998;5.140;2024-03-08T02:48:11;13.73;118.99
65559;DHT22;52203;51.998;5.140;2024-03-08T02:50:37;13.71;118.99
65559;DHT22;52203;51.998;5.140;2024-03-08T02:53:03;13.71;118.99
65559;DHT22;52203;51.998;5.140;2024-03-08T02:55:29;13.69;118.99
65559;DHT22;52203;51.998;5.140;2024-03-08T02:58:02;13.70;118.99
65559;DHT22;52203;51.998;5.140;2024-03-08T03:00:28;13.68;118.99
65559;DHT22;52203;51.998;5.140;2024-03-08T03:02:56;13.68;118.99
65559;DHT22;52203;51.998;5.140;2024-03-08T03:05:22;13.66;118.99
65559;DHT22;52203;51.998;5.140;2024-03-08T03:07:48;13.66;118.99
65559;DHT22;52203;51.998;5.140;2024-03-08T03:10:14;13.67;118.99
65559;DHT22;52203;51.998;5.140;2024-03-08T03:12:43;13.65;118.99
65559;DHT22;52203;51.998;5.140;2024-03-08T03:15:10;13.62;118.99
65559;DHT22;52203;51.998;5.140;2024-03-08T03:17:37;13.64;118.99
65559;DHT22;52203;51.998;5.140;2024-03-08T03:20:05;13.62;118.99
65559;DHT22;52203;51.998;5.140;2024-03-08T03:22:36;13.62;118.99
65559;DHT22;52203;51.998;5.140;2024-03-08T03:25:02;13.62;118.99
65559;DHT22;52203;51.998;5.140;2024-03-08T03:27:29;13.62;118.99
65559;DHT22;52203;51.998;5.140;2024-03-08T03:29:56;13.60;118.99
65559;DHT22;52203;51.998;5.140;2024-03-08T03:32:25;13.60;118.99
65559;DHT22;52203;51.998;5.140;2024-03-08T03:34:52;13.56;118.99
65559;DHT22;52203;51.998;5.140;2024-03-08T03:37:20;13.59;118.99
65559;DHT22;52203;51.998;5.140;2024-03-08T03:39:46;13.56;118.99
65559;DHT22;52203;51.998;5.140;2024-03-08T03:42:18;13.56;118.99
65559;DHT22;52203;51.998;5.140;2024-03-08T03:44:47;13.56;118.99
65559;DHT22;52203;51.998;5.140;2024-03-08T03:47:16;13.55;118.99
65559;DHT22;52203;51.998;5.140;2024-03-08T03:49:42;13.54;118.99
65559;DHT22;52203;51.998;5.140;2024-03-08T03:52:08;13.53;118.99
65559;DHT22;52203;51.998;5.140;2024-03-08T03:54:34;13.54;118.99
65559;DHT22;52203;51.998;5.140;2024-03-08T03:57:00;13.51;118.99
65559;DHT22;52203;51.998;5.140;2024-03-08T03:59:26;13.53;118.99
65559;DHT22;52203;51.998;5.140;2024-03-08T04:01:52;13.50;118.99
65559;DHT22;52203;51.998;5.140;2024-03-08T04:04:18;13.51;118.99
65559;DHT22;52203;51.998;5.140;2024-03-08T04:06:43;13.51;118.99
65559;DHT22;52203;51.998;5.140;2024-03-08T04:09:10;13.49;118.99
65559;DHT22;52203;51.998;5.140;2024-03-08T04:11:36;13.49;118.99
65559;DHT22;52203;51.998;5.140;2024-03-08T04:14:02;13.47;118.99
65559;DHT22;52203;51.998;5.140;2024-03-08T04:16:27;13.47;118.99
65559;DHT22;52203;51.998;5.140;2024-03-08T04:18:53;13.47;118.99
65559;DHT22;52203;51.998;5.140;2024-03-08T04:21:18;13.46;118.99
65559;DHT22;52203;51.998;5.140;2024-03-08T04:23:47;13.44;118.99
65559;DHT22;52203;51.998;5.140;2024-03-08T04:26:12;13.44;118.99
65559;DHT22;52203;51.998;5.140;2024-03-08T04:28:38;13.44;118.99
65559;DHT22;52203;51.998;5.140;2024-03-08T04:31:04;13.40;118.99
65559;DHT22;52203;51.998;5.140;2024-03-08T04:33:30;13.41;118.99
65559;DHT22;52203;51.998;5.140;2024-03-08T04:35:55;13.40;118.99
65559;DHT22;52203;51.998;5.140;2024-03-08T04:38:21;13.39;118.99
65559;DHT22;52203;51.998;5.140;2024-03-08T04:40:51;13.39;118.99
65559;DHT22;52203;51.998;5.140;2024-03-08T04:43:16;13.39;118.99
65559;DHT22;52203;51.998;5.140;2024-03-08T04:45:44;13.36;118.99
65559;DHT22;52203;51.998;5.140;2024-03-08T04:48:09;13.38;118.99
65559;DHT22;52203;51.998;5.140;2024-03-08T04:50:35;13.36;118.99
65559;DHT22;52203;51.998;5.140;2024-03-08T04:53:00;13.35;118.99
65559;DHT22;52203;51.998;5.140;2024-03-08T04:55:26;13.35;118.99
65559;DHT22;52203;51.998;5.140;2024-03-08T04:57:52;13.36;118.99
65559;DHT22;52203;51.998;5.140;2024-03-08T05:00:18;13.35;118.99
65559;DHT22;52203;51.998;5.140;2024-03-08T05:02:44;13.33;118.99
65559;DHT22;52203;51.998;5.140;2024-03-08T05:05:10;13.34;118.99
65559;DHT22;52203;51.998;5.140;2024-03-08T05:07:39;13.32;118.99
65559;DHT22;52203;51.998;5.140;2024-03-08T05:10:06;13.31;118.99
65559;DHT22;52203;51.998;5.140;2024-03-08T05:12:35;13.31;118.99
65559;DHT22;52203;51.998;5.140;2024-03-08T05:15:00;13.29;118.99
65559;DHT22;52203;51.998;5.140;2024-03-08T05:17:26;13.29;118.99
65559;DHT22;52203;51.998;5.140;2024-03-08T05:19:51;13.27;118.99
65559;DHT22;52203;51.998;5.140;2024-03-08T05:22:17;13.27;118.99
65559;DHT22;52203;51.998;5.140;2024-03-08T05:24:44;13.26;118.99
65559;DHT22;52203;51.998;5.140;2024-03-08T05:27:09;13.26;118.99
65559;DHT22;52203;51.998;5.140;2024-03-08T05:29:35;13.26;118.99
65559;DHT22;52203;51.998;5.140;2024-03-08T05:32:00;13.24;118.99
65559;DHT22;52203;51.998;5.140;2024-03-08T05:34:27;13.23;118.99
65559;DHT22;52203;51.998;5.140;2024-03-08T05:36:54;13.23;118.99
65559;DHT22;52203;51.998;5.140;2024-03-08T05:39:20;13.21;118.99
65559;DHT22;52203;51.998;5.140;2024-03-08T05:41:46;13.23;118.99
65559;DHT22;52203;51.998;5.140;2024-03-08T05:44:12;13.21;118.99
65559;DHT22;52203;51.998;5.140;2024-03-08T05:46:38;13.22;118.99
65559;DHT22;52203;51.998;5.140;2024-03-08T05:49:05;13.22;118.99
65559;DHT22;52203;51.998;5.140;2024-03-08T05:51:33;13.20;118.99
65559;DHT22;52203;51.998;5.140;2024-03-08T05:54:09;13.19;118.99
65559;DHT22;52203;51.998;5.140;2024-03-08T05:56:36;13.18;118.99
65559;DHT22;52203;51.998;5.140;2024-03-08T05:59:02;13.18;118.99
65559;DHT22;52203;51.998;5.140;2024-03-08T06:01:28;13.16;118.99
65559;DHT22;52203;51.998;5.140;2024-03-08T06:03:54;13.16;118.99
65559;DHT22;52203;51.998;5.140;2024-03-08T06:06:23;13.11;118.99
65559;DHT22;52203;51.998;5.140;2024-03-08T06:08:50;13.17;118.99
65559;DHT22;52203;51.998;5.140;2024-03-08T06:11:17;13.15;118.99
65559;DHT22;52203;51.998;5.140;2024-03-08T06:13:43;13.11;118.99
65559;DHT22;52203;51.998;5.140;2024-03-08T06:16:09;13.10;118.99
65559;DHT22;52203;51.998;5.140;2024-03-08T06:18:35;13.08;118.99
65559;DHT22;52203;51.998;5.140;2024-03-08T06:21:12;13.09;118.99
65559;DHT22;52203;51.998;5.140;2024-03-08T06:23:38;13.08;118.99
65559;DHT22;52203;51.998;5.140;2024-03-08T06:26:10;13.09;118.99
65559;DHT22;52203;51.998;5.140;2024-03-08T06:28:35;13.09;118.99
65559;DHT22;52203;51.998;5.140;2024-03-08T06:31:02;13.09;118.99
65559;DHT22;52203;51.998;5.140;2024-03-08T06:33:28;13.11;118.99
65559;DHT22;52203;51.998;5.140;2024-03-08T06:35:56;13.12;118.99
65559;DHT22;52203;51.998;5.140;2024-03-08T06:38:25;13.12;118.99
65559;DHT22;52203;51.998;5.140;2024-03-08T06:40:53;13.12;118.99
65559;DHT22;52203;51.998;5.140;2024-03-08T06:43:20;13.12;118.99
65559;DHT22;52203;51.998;5.140;2024-03-08T06:45:45;13.14;118.99
65559;DHT22;52203;51.998;5.140;2024-03-08T06:48:16;13.15;118.99
65559;DHT22;52203;51.998;5.140;2024-03-08T06:50:43;13.17;118.99
65559;DHT22;52203;51.998;5.140;2024-03-08T06:53:09;13.17;118.99
65559;DHT22;52203;51.998;5.140;2024-03-08T06:55:35;13.16;118.99
65559;DHT22;52203;51.998;5.140;2024-03-08T06:58:03;13.20;118.99
65559;DHT22;52203;51.998;5.140;2024-03-08T07:00:28;13.18;118.99
65559;DHT22;52203;51.998;5.140;2024-03-08T07:02:56;13.19;118.99
65559;DHT22;52203;51.998;5.140;2024-03-08T07:05:22;13.25;118.99
65559;DHT22;52203;51.998;5.140;2024-03-08T07:07:49;13.26;118.99
65559;DHT22;52203;51.998;5.140;2024-03-08T07:10:16;13.27;118.99
65559;DHT22;52203;51.998;5.140;2024-03-08T07:12:42;13.30;118.99
65559;DHT22;52203;51.998;5.140;2024-03-08T07:15:08;13.29;118.99
65559;DHT22;52203;51.998;5.140;2024-03-08T07:17:39;13.31;118.99
65559;DHT22;52203;51.998;5.140;2024-03-08T07:20:05;13.40;118.99
65559;DHT22;52203;51.998;5.140;2024-03-08T07:22:36;13.40;118.99
65559;DHT22;52203;51.998;5.140;2024-03-08T07:25:07;13.43;118.99
65559;DHT22;52203;51.998;5.140;2024-03-08T07:27:33;13.43;118.99
65559;DHT22;52203;51.998;5.140;2024-03-08T07:30:02;13.46;118.99
65559;DHT22;52203;51.998;5.140;2024-03-08T07:32:28;13.46;118.99
65559;DHT22;52203;51.998;5.140;2024-03-08T07:34:55;13.46;118.99
65559;DHT22;52203;51.998;5.140;2024-03-08T07:37:21;13.48;118.99
65559;DHT22;52203;51.998;5.140;2024-03-08T07:39:49;13.49;118.99
65559;DHT22;52203;51.998;5.140;2024-03-08T07:42:15;13.52;118.99
65559;DHT22;52203;51.998;5.140;2024-03-08T07:44:42;13.45;118.99
65559;DHT22;52203;51.998;5.140;2024-03-08T07:47:08;13.43;118.99
65559;DHT22;52203;51.998;5.140;2024-03-08T07:49:35;13.40;118.99
65559;DHT22;52203;51.998;5.140;2024-03-08T07:52:03;13.40;118.99
65559;DHT22;52203;51.998;5.140;2024-03-08T07:54:30;13.40;118.99
65559;DHT22;52203;51.998;5.140;2024-03-08T07:56:55;13.41;118.99
65559;DHT22;52203;51.998;5.140;2024-03-08T07:59:21;13.46;118.99
65559;DHT22;52203;51.998;5.140;2024-03-08T08:01:47;13.43;118.99
65559;DHT22;52203;51.998;5.140;2024-03-08T08:04:13;13.45;118.99
65559;DHT22;52203;51.998;5.140;2024-03-08T08:06:41;13.51;118.99
65559;DHT22;52203;51.998;5.140;2024-03-08T08:09:07;13.48;118.99
65559;DHT22;52203;51.998;5.140;2024-03-08T08:11:53;13.30;118.99
65559;DHT22;52203;51.998;5.140;2024-03-08T08:14:19;12.94;118.99
65559;DHT22;52203;51.998;5.140;2024-03-08T08:16:46;12.88;118.99
65559;DHT22;52203;51.998;5.140;2024-03-08T08:19:14;12.86;118.99
65559;DHT22;52203;51.998;5.140;2024-03-08T08:21:41;12.86;118.99
65559;DHT22;52203;51.998;5.140;2024-03-08T08:24:06;12.91;118.99
65559;DHT22;52203;51.998;5.140;2024-03-08T08:26:32;12.84;118.99
65559;DHT22;52203;51.998;5.140;2024-03-08T08:28:59;12.86;118.99
65559;DHT22;52203;51.998;5.140;2024-03-08T08:31:25;12.84;118.99
65559;DHT22;52203;51.998;5.140;2024-03-08T08:33:51;12.93;118.99
65559;DHT22;52203;51.998;5.140;2024-03-08T08:36:23;12.95;118.99
65559;DHT22;52203;51.998;5.140;2024-03-08T08:38:49;12.94;118.99
65559;DHT22;52203;51.998;5.140;2024-03-08T08:41:14;12.94;118.99
65559;DHT22;52203;51.998;5.140;2024-03-08T08:43:41;12.97;118.99
65559;DHT22;52203;51.998;5.140;2024-03-08T08:46:10;13.06;118.99
65559;DHT22;52203;51.998;5.140;2024-03-08T08:48:39;13.09;118.99
65559;DHT22;52203;51.998;5.140;2024-03-08T08:51:09;13.10;118.99
65559;DHT22;52203;51.998;5.140;2024-03-08T08:53:40;13.19;118.99
65559;DHT22;52203;51.998;5.140;2024-03-08T08:56:14;13.37;118.99
65559;DHT22;52203;51.998;5.140;2024-03-08T08:58:40;13.53;118.99
65559;DHT22;52203;51.998;5.140;2024-03-08T09:01:09;13.34;118.99
65559;DHT22;52203;51.998;5.140;2024-03-08T09:03:37;13.08;118.99
65559;DHT22;52203;51.998;5.140;2024-03-08T09:06:08;13.05;118.99
65559;DHT22;52203;51.998;5.140;2024-03-08T09:08:37;13.03;118.99
65559;DHT22;52203;51.998;5.140;2024-03-08T09:11:03;13.05;118.99
65559;DHT22;52203;51.998;5.140;2024-03-08T09:13:29;13.03;118.99
65559;DHT22;52203;51.998;5.140;2024-03-08T09:15:55;13.05;118.99
65559;DHT22;52203;51.998;5.140;2024-03-08T09:18:20;13.10;118.99
65559;DHT22;52203;51.998;5.140;2024-03-08T09:20:46;13.11;118.99
65559;DHT22;52203;51.998;5.140;2024-03-08T09:23:12;13.61;118.99
65559;DHT22;52203;51.998;5.140;2024-03-08T09:25:38;14.12;118.99
65559;DHT22;52203;51.998;5.140;2024-03-08T09:28:03;14.15;118.99
65559;DHT22;52203;51.998;5.140;2024-03-08T09:30:31;14.52;118.99
65559;DHT22;52203;51.998;5.140;2024-03-08T09:32:56;14.44;118.99
65559;DHT22;52203;51.998;5.140;2024-03-08T09:35:22;14.20;118.99
65559;DHT22;52203;51.998;5.140;2024-03-08T09:37:47;13.96;118.99
65559;DHT22;52203;51.998;5.140;2024-03-08T09:40:16;14.18;118.99
65559;DHT22;52203;51.998;5.140;2024-03-08T09:42:47;14.64;118.99
65559;DHT22;52203;51.998;5.140;2024-03-08T09:45:13;14.79;118.99
65559;DHT22;52203;51.998;5.140;2024-03-08T09:47:44;14.75;118.99
65559;DHT22;52203;51.998;5.140;2024-03-08T09:50:11;14.75;118.99
65559;DHT22;52203;51.998;5.140;2024-03-08T09:52:41;14.81;118.99
65559;DHT22;52203;51.998;5.140;2024-03-08T09:55:10;14.83;118.99
65559;DHT22;52203;51.998;5.140;2024-03-08T09:57:40;14.85;118.99
65559;DHT22;52203;51.998;5.140;2024-03-08T10:00:06;14.93;118.99
65559;DHT22;52203;51.998;5.140;2024-03-08T10:02:50;15.11;118.99
65559;DHT22;52203;51.998;5.140;2024-03-08T10:05:18;15.02;118.99
65559;DHT22;52203;51.998;5.140;2024-03-08T10:07:46;15.02;118.99
65559;DHT22;52203;51.998;5.140;2024-03-08T10:10:12;15.06;118.99
65559;DHT22;52203;51.998;5.140;2024-03-08T10:12:38;15.17;118.99
65559;DHT22;52203;51.998;5.140;2024-03-08T10:15:08;15.18;118.99
65559;DHT22;52203;51.998;5.140;2024-03-08T10:17:35;14.97;118.99
65559;DHT22;52203;51.998;5.140;2024-03-08T10:20:25;14.59;118.99
65559;DHT22;52203;51.998;5.140;2024-03-08T10:22:52;14.39;118.99
65559;DHT22;52203;51.998;5.140;2024-03-08T10:25:19;14.10;118.99
65559;DHT22;52203;51.998;5.140;2024-03-08T10:27:45;14.06;118.99
65559;DHT22;52203;51.998;5.140;2024-03-08T10:30:15;14.05;118.99
65559;DHT22;52203;51.998;5.140;2024-03-08T10:32:45;13.96;118.99
65559;DHT22;52203;51.998;5.140;2024-03-08T10:35:10;13.91;118.99
65559;DHT22;52203;51.998;5.140;2024-03-08T10:37:46;13.97;118.99
65559;DHT22;52203;51.998;5.140;2024-03-08T10:40:19;14.00;118.99
65559;DHT22;52203;51.998;5.140;2024-03-08T10:42:54;13.93;118.99
65559;DHT22;52203;51.998;5.140;2024-03-08T10:45:38;13.81;118.99
65559;DHT22;52203;51.998;5.140;2024-03-08T10:48:32;13.77;118.99
65559;DHT22;52203;51.998;5.140;2024-03-08T10:51:04;13.73;118.99
65559;DHT22;52203;51.998;5.140;2024-03-08T10:53:30;13.71;118.99
65559;DHT22;52203;51.998;5.140;2024-03-08T10:55:56;13.71;118.99
65559;DHT22;52203;51.998;5.140;2024-03-08T10:58:24;13.74;118.99
65559;DHT22;52203;51.998;5.140;2024-03-08T11:00:53;13.74;118.99
65559;DHT22;52203;51.998;5.140;2024-03-08T11:06:05;13.82;118.99
65559;DHT22;52203;51.998;5.140;2024-03-08T11:08:33;13.82;118.99
65559;DHT22;52203;51.998;5.140;2024-03-08T11:11:01;13.79;118.99
65559;DHT22;52203;51.998;5.140;2024-03-08T11:13:37;13.85;118.99
65559;DHT22;52203;51.998;5.140;2024-03-08T11:16:07;13.83;118.99
65559;DHT22;52203;51.998;5.140;2024-03-08T11:18:37;13.84;118.99
65559;DHT22;52203;51.998;5.140;2024-03-08T11:21:08;13.84;118.99
65559;DHT22;52203;51.998;5.140;2024-03-08T11:23:40;13.85;118.99
65559;DHT22;52203;51.998;5.140;2024-03-08T11:26:24;13.89;118.99
65559;DHT22;52203;51.998;5.140;2024-03-08T11:28:49;13.90;118.99
65559;DHT22;52203;51.998;5.140;2024-03-08T11:33:46;14.06;118.99
65559;DHT22;52203;51.998;5.140;2024-03-08T11:36:20;13.85;118.99
65559;DHT22;52203;51.998;5.140;2024-03-08T11:38:48;13.81;118.99
65559;DHT22;52203;51.998;5.140;2024-03-08T11:41:21;13.97;118.99
65559;DHT22;52203;51.998;5.140;2024-03-08T11:43:47;13.85;118.99
65559;DHT22;52203;51.998;5.140;2024-03-08T11:46:14;13.86;118.99
65559;DHT22;52203;51.998;5.140;2024-03-08T11:48:41;13.84;118.99
65559;DHT22;52203;51.998;5.140;2024-03-08T11:51:08;13.84;118.99
65559;DHT22;52203;51.998;5.140;2024-03-08T11:53:34;13.89;118.99
65559;DHT22;52203;51.998;5.140;2024-03-08T11:56:08;13.85;118.99
65559;DHT22;52203;51.998;5.140;2024-03-08T11:58:34;13.89;118.99
65559;DHT22;52203;51.998;5.140;2024-03-08T12:01:03;13.91;118.99
65559;DHT22;52203;51.998;5.140;2024-03-08T12:03:30;13.94;118.99
65559;DHT22;52203;51.998;5.140;2024-03-08T12:05:59;13.93;118.99
65559;DHT22;52203;51.998;5.140;2024-03-08T12:08:25;13.93;118.99
65559;DHT22;52203;51.998;5.140;2024-03-08T12:10:53;13.96;118.99
65559;DHT22;52203;51.998;5.140;2024-03-08T12:13:31;13.98;118.99
65559;DHT22;52203;51.998;5.140;2024-03-08T12:15:57;13.99;118.99
65559;DHT22;52203;51.998;5.140;2024-03-08T12:18:27;14.10;118.99
65559;DHT22;52203;51.998;5.140;2024-03-08T12:21:08;14.05;118.99
65559;DHT22;52203;51.998;5.140;2024-03-08T12:23:34;14.04;118.99
65559;DHT22;52203;51.998;5.140;2024-03-08T12:26:25;14.04;118.99
65559;DHT22;52203;51.998;5.140;2024-03-08T12:28:51;14.07;118.99
65559;DHT22;52203;51.998;5.140;2024-03-08T12:31:17;14.06;118.99
65559;DHT22;52203;51.998;5.140;2024-03-08T12:33:55;14.10;118.99
65559;DHT22;52203;51.998;5.140;2024-03-08T12:36:24;14.09;118.99
65559;DHT22;52203;51.998;5.140;2024-03-08T12:38:51;14.11;118.99
65559;DHT22;52203;51.998;5.140;2024-03-08T12:41:23;14.13;118.99
65559;DHT22;52203;51.998;5.140;2024-03-08T12:43:48;14.17;118.99
65559;DHT22;52203;51.998;5.140;2024-03-08T12:46:19;14.18;118.99
65559;DHT22;52203;51.998;5.140;2024-03-08T12:48:51;14.21;118.99
65559;DHT22;52203;51.998;5.140;2024-03-08T12:51:20;14.25;118.99
65559;DHT22;52203;51.998;5.140;2024-03-08T12:53:46;14.27;118.99
65559;DHT22;52203;51.998;5.140;2024-03-08T12:56:28;14.29;118.99
65559;DHT22;52203;51.998;5.140;2024-03-08T12:58:54;14.32;118.99
65559;DHT22;52203;51.998;5.140;2024-03-08T13:01:19;14.32;118.99
65559;DHT22;52203;51.998;5.140;2024-03-08T13:03:45;14.35;118.99
65559;DHT22;52203;51.998;5.140;2024-03-08T13:06:11;14.40;118.99
65559;DHT22;52203;51.998;5.140;2024-03-08T13:08:37;14.32;118.99
65559;DHT22;52203;51.998;5.140;2024-03-08T13:11:10;14.32;118.99
65559;DHT22;52203;51.998;5.140;2024-03-08T13:13:39;14.33;118.99
65559;DHT22;52203;51.998;5.140;2024-03-08T13:16:06;14.37;118.99
65559;DHT22;52203;51.998;5.140;2024-03-08T13:18:35;14.34;118.99
65559;DHT22;52203;51.998;5.140;2024-03-08T13:21:01;14.36;118.99
65559;DHT22;52203;51.998;5.140;2024-03-08T13:23:37;14.30;118.99
65559;DHT22;52203;51.998;5.140;2024-03-08T13:26:12;14.33;118.99
65559;DHT22;52203;51.998;5.140;2024-03-08T13:28:43;14.35;118.99
65559;DHT22;52203;51.998;5.140;2024-03-08T13:31:10;14.38;118.99
65559;DHT22;52203;51.998;5.140;2024-03-08T13:33:39;14.40;118.99
65559;DHT22;52203;51.998;5.140;2024-03-08T13:36:05;14.39;118.99
65559;DHT22;52203;51.998;5.140;2024-03-08T13:38:32;14.34;118.99
65559;DHT22;52203;51.998;5.140;2024-03-08T13:40:58;14.39;118.99
65559;DHT22;52203;51.998;5.140;2024-03-08T13:43:24;14.41;118.99
65559;DHT22;52203;51.998;5.140;2024-03-08T13:45:49;14.39;118.99
65559;DHT22;52203;51.998;5.140;2024-03-08T13:48:15;14.52;118.99
65559;DHT22;52203;51.998;5.140;2024-03-08T13:50:41;14.53;118.99
65559;DHT22;52203;51.998;5.140;2024-03-08T13:53:07;14.47;118.99
65559;DHT22;52203;51.998;5.140;2024-03-08T13:55:35;14.48;118.99
65559;DHT22;52203;51.998;5.140;2024-03-08T13:58:01;14.54;118.99
65559;DHT22;52203;51.998;5.140;2024-03-08T14:00:27;14.58;118.99
65559;DHT22;52203;51.998;5.140;2024-03-08T14:02:58;14.53;118.99
65559;DHT22;52203;51.998;5.140;2024-03-08T14:05:24;14.52;118.99
65559;DHT22;52203;51.998;5.140;2024-03-08T14:07:51;14.53;118.99
65559;DHT22;52203;51.998;5.140;2024-03-08T14:10:19;14.52;118.99
65559;DHT22;52203;51.998;5.140;2024-03-08T14:12:48;14.58;118.99
65559;DHT22;52203;51.998;5.140;2024-03-08T14:15:15;14.59;118.99
65559;DHT22;52203;51.998;5.140;2024-03-08T14:17:42;14.58;118.99
65559;DHT22;52203;51.998;5.140;2024-03-08T14:20:08;14.53;118.99
65559;DHT22;52203;51.998;5.140;2024-03-08T14:22:34;14.54;118.99
65559;DHT22;52203;51.998;5.140;2024-03-08T14:25:00;14.52;118.99
65559;DHT22;52203;51.998;5.140;2024-03-08T14:27:25;14.45;118.99
65559;DHT22;52203;51.998;5.140;2024-03-08T14:29:52;14.55;118.99
65559;DHT22;52203;51.998;5.140;2024-03-08T14:32:19;14.42;118.99
65559;DHT22;52203;51.998;5.140;2024-03-08T14:34:48;14.39;118.99
65559;DHT22;52203;51.998;5.140;2024-03-08T14:37:14;14.36;118.99
65559;DHT22;52203;51.998;5.140;2024-03-08T14:39:40;14.36;118.99
65559;DHT22;52203;51.998;5.140;2024-03-08T14:42:05;14.42;118.99
65559;DHT22;52203;51.998;5.140;2024-03-08T14:44:33;14.35;118.99
65559;DHT22;52203;51.998;5.140;2024-03-08T14:46:59;14.25;118.99
65559;DHT22;52203;51.998;5.140;2024-03-08T14:49:25;14.21;118.99
65559;DHT22;52203;51.998;5.140;2024-03-08T14:52:02;14.21;118.99
65559;DHT22;52203;51.998;5.140;2024-03-08T14:54:27;14.26;118.99
65559;DHT22;52203;51.998;5.140;2024-03-08T14:56:53;14.49;118.99
65559;DHT22;52203;51.998;5.140;2024-03-08T14:59:22;14.40;118.99
65559;DHT22;52203;51.998;5.140;2024-03-08T15:01:48;14.29;118.99
65559;DHT22;52203;51.998;5.140;2024-03-08T15:04:16;14.27;118.99
65559;DHT22;52203;51.998;5.140;2024-03-08T15:06:43;14.25;118.99
65559;DHT22;52203;51.998;5.140;2024-03-08T15:09:14;14.25;118.99
65559;DHT22;52203;51.998;5.140;2024-03-08T15:11:45;14.22;118.99
65559;DHT22;52203;51.998;5.140;2024-03-08T15:14:11;14.21;118.99
65559;DHT22;52203;51.998;5.140;2024-03-08T15:16:39;14.20;118.99
65559;DHT22;52203;51.998;5.140;2024-03-08T15:19:09;14.22;118.99
65559;DHT22;52203;51.998;5.140;2024-03-08T15:21:37;14.24;118.99
65559;DHT22;52203;51.998;5.140;2024-03-08T15:24:03;14.22;118.99